KEVIN PRICE 46x100m/0:20r row

4,600

Meters

14:47.1

Time

1:36.4

Pace

372

Calories

Rest Distance1,009
Rest Time15:20.0
Overall Distance5,609
Overall Time30:07.1
Average Watts390
Calories Per Hour1509
Stroke Rate32
Stroke Count514
Drag Factor126

November 19, 2021 15:24:00

Workout
RowErg

Workout Type
Interval:Distance

Weight Class
Hwt

Verified
Yes

Entered
ErgData iOS

Intervals

Time Meters Pace Watts Cal/Hr S/M
14:47.1 4,600 1:36.4 390 1509 32
0:20.5 100 1:42.5 325 1404 35
0:20.3 100 1:41.5 335 1418 30
0:19.8 100 1:39.0 361 1454 30
0:19.9 100 1:39.5 355 1447 30
0:19.5 100 1:37.5 378 1476 31
0:19.4 100 1:37.0 383 1484 34
0:19.7 100 1:38.5 366 1461 33
0:19.7 100 1:38.5 366 1461 34
0:19.5 100 1:37.5 378 1476 34
0:19.4 100 1:37.0 383 1484 34
0:19.4 100 1:37.0 383 1484 34
0:19.3 100 1:36.5 389 1492 34
0:19.5 100 1:37.5 378 1476 31
0:19.2 100 1:36.0 396 1500 34
0:19.1 100 1:35.5 402 1507 31
0:19.5 100 1:37.5 378 1476 34
0:19.1 100 1:35.5 402 1507 31
0:19.1 100 1:35.5 402 1507 31
0:19.1 100 1:35.5 402 1507 31
0:19.2 100 1:36.0 396 1500 31
0:19.2 100 1:36.0 396 1500 31
0:19.3 100 1:36.5 389 1492 31
0:19.0 100 1:35.0 408 1515 32
0:19.1 100 1:35.5 402 1507 31
0:18.9 100 1:34.5 415 1714 32
0:19.2 100 1:36.0 396 1500 31
0:19.1 100 1:35.5 402 1507 35
0:19.1 100 1:35.5 402 1507 35
0:19.0 100 1:35.0 408 1515 32
0:19.2 100 1:36.0 396 1500 31
0:19.1 100 1:35.5 402 1507 35
0:19.1 100 1:35.5 402 1507 35
0:19.1 100 1:35.5 402 1507 35
0:19.2 100 1:36.0 396 1500 31
0:19.1 100 1:35.5 402 1507 35
0:19.5 100 1:37.5 378 1476 34
0:18.9 100 1:34.5 415 1714 35
0:19.0 100 1:35.0 408 1515 35
0:19.1 100 1:35.5 402 1507 34
0:18.9 100 1:34.5 415 1714 35
0:19.3 100 1:36.5 389 1492 34
0:19.0 100 1:35.0 408 1515 35
0:19.2 100 1:36.0 396 1500 34
0:19.3 100 1:36.5 389 1492 34
0:19.6 100 1:38.0 372 1469 34
0:18.8 100 1:34.0 421 1723 35
r1,009

Click on an interval to see the workout graph.

Click and drag on the graph to zoom in on a section.

Workout Graph

Loading data.